createdAt,value
2023-01-06T00:02:46.924Z,1.60
2023-01-06T00:07:50.042Z,1.42
2023-01-06T00:12:52.489Z,1.67
2023-01-06T00:17:54.145Z,1.40
2023-01-06T00:22:55.727Z,1.42
2023-01-06T00:27:57.457Z,1.48
2023-01-06T00:32:59.060Z,1.42
2023-01-06T00:38:00.653Z,1.55
2023-01-06T00:43:02.314Z,1.70
2023-01-06T00:48:04.155Z,1.30
2023-01-06T00:53:05.926Z,1.40
2023-01-06T00:58:07.616Z,1.60
2023-01-06T01:03:09.292Z,1.60
2023-01-06T01:08:10.883Z,1.80
2023-01-06T01:13:12.431Z,1.90
2023-01-06T01:18:13.990Z,1.73
2023-01-06T01:23:16.165Z,1.90
2023-01-06T01:28:17.738Z,2.17
2023-01-06T01:33:19.332Z,2.45
2023-01-06T01:38:21.201Z,2.13
2023-01-06T01:43:22.885Z,2.55
2023-01-06T01:48:32.313Z,2.55
2023-01-06T01:53:37.522Z,2.10
2023-01-06T01:58:48.165Z,2.45
2023-01-06T02:03:49.824Z,2.83
2023-01-06T02:09:04.662Z,2.38
2023-01-06T02:14:12.356Z,2.30
2023-01-06T02:19:51.361Z,2.00
2023-01-06T02:25:34.137Z,2.13
2023-01-06T02:31:16.204Z,1.90
2023-01-06T02:36:35.116Z,2.75
2023-01-06T02:41:48.281Z,2.05
2023-01-06T02:46:53.970Z,2.10
2023-01-06T02:52:04.775Z,2.80
2023-01-06T02:57:38.009Z,2.40
2023-01-06T03:02:41.538Z,2.38
2023-01-06T03:07:45.536Z,2.00
2023-01-06T03:12:52.927Z,2.20
2023-01-06T03:17:55.181Z,2.25
2023-01-06T03:22:56.882Z,2.00
2023-01-06T03:27:58.553Z,2.22
2023-01-06T03:33:03.491Z,2.30
2023-01-06T03:38:33.602Z,2.22
2023-01-06T03:43:41.441Z,2.15
2023-01-06T03:48:57.393Z,2.25
2023-01-06T03:54:04.191Z,2.00
2023-01-06T03:59:11.193Z,2.15
2023-01-06T04:04:13.413Z,2.22
2023-01-06T04:09:15.849Z,2.15
2023-01-06T04:14:20.485Z,2.20
2023-01-06T04:19:22.428Z,1.83
2023-01-06T04:24:24.174Z,1.90
2023-01-06T04:29:25.893Z,1.80
2023-01-06T04:34:30.228Z,1.60
2023-01-06T04:39:33.004Z,1.60
2023-01-06T04:44:34.661Z,1.88
2023-01-06T04:49:36.390Z,1.70
2023-01-06T04:54:38.031Z,1.40
2023-01-06T04:59:39.614Z,1.92
2023-01-06T05:04:47.781Z,1.90
2023-01-06T05:09:49.825Z,1.73
2023-01-06T05:14:51.503Z,1.90
2023-01-06T05:19:53.184Z,1.98
2023-01-06T05:24:55.903Z,2.50
2023-01-06T05:29:57.496Z,2.00
2023-01-06T05:34:59.123Z,2.10
2023-01-06T05:40:00.690Z,2.00
2023-01-06T05:45:02.328Z,2.20
2023-01-06T05:50:04.718Z,2.10
2023-01-06T05:55:06.846Z,2.17
2023-01-06T06:00:09.106Z,2.33
2023-01-06T06:05:16.317Z,2.40
2023-01-06T06:10:17.990Z,2.33
2023-01-06T06:15:19.781Z,2.55
2023-01-06T06:20:21.377Z,2.75
2023-01-06T06:25:22.964Z,2.85
2023-01-06T06:30:24.690Z,2.90
2023-01-06T06:35:26.382Z,2.90
2023-01-06T06:40:27.981Z,2.85
2023-01-06T06:45:29.617Z,2.80
2023-01-06T06:50:31.290Z,3.08
2023-01-06T06:55:33.548Z,2.83
2023-01-06T07:00:35.130Z,3.65
2023-01-06T07:05:36.785Z,3.10
2023-01-06T07:10:38.788Z,3.33
2023-01-06T07:15:40.507Z,3.42
2023-01-06T07:20:47.088Z,3.47
2023-01-06T07:25:53.224Z,3.15
2023-01-06T07:30:54.941Z,3.10
2023-01-06T07:35:57.287Z,3.60
2023-01-06T07:41:00.929Z,3.35
2023-01-06T07:46:02.572Z,3.85
2023-01-06T07:51:04.354Z,3.60
2023-01-06T07:56:06.502Z,3.67
2023-01-06T08:01:08.480Z,4.28
2023-01-06T08:06:11.107Z,4.45
2023-01-06T08:11:13.318Z,4.30
2023-01-06T08:16:15.065Z,4.13
2023-01-06T08:21:16.752Z,4.57
2023-01-06T08:26:18.652Z,4.38
2023-01-06T08:31:21.554Z,4.53
2023-01-06T08:36:24.199Z,4.65
2023-01-06T08:41:25.840Z,4.35
2023-01-06T08:46:27.502Z,4.35
2023-01-06T08:51:29.177Z,4.45
2023-01-06T08:56:31.641Z,4.18
2023-01-06T09:01:35.971Z,4.25
2023-01-06T09:06:38.504Z,4.28
2023-01-06T09:11:44.836Z,3.72
2023-01-06T09:16:48.677Z,4.18
2023-01-06T09:21:50.332Z,3.53
2023-01-06T09:26:51.997Z,3.40
2023-01-06T09:31:53.578Z,3.70
2023-01-06T09:36:55.182Z,4.00
2023-01-06T09:42:21.544Z,3.53
2023-01-06T09:47:28.297Z,4.10
2023-01-06T09:52:36.211Z,3.67
2023-01-06T09:57:41.187Z,3.53
2023-01-06T10:02:43.359Z,3.38
2023-01-06T10:08:03.957Z,4.15
2023-01-06T10:13:29.517Z,3.60
2023-01-06T10:18:31.101Z,3.60
2023-01-06T10:23:39.414Z,3.50
2023-01-06T10:28:43.895Z,3.53
2023-01-06T10:33:53.479Z,3.65
2023-01-06T10:38:55.260Z,3.85
2023-01-06T10:43:57.499Z,3.90
2023-01-06T10:48:59.167Z,3.70
2023-01-06T10:54:02.750Z,3.65
2023-01-06T10:59:14.123Z,3.97
2023-01-06T11:04:17.334Z,3.50
2023-01-06T11:09:39.182Z,3.10
2023-01-06T11:14:41.261Z,3.55
2023-01-06T11:19:45.017Z,3.85
2023-01-06T11:24:52.859Z,3.97
2023-01-06T11:29:55.026Z,2.10
2023-01-06T11:35:05.004Z,1.25
2023-01-06T11:40:25.335Z,0.80
2023-01-06T11:46:04.723Z,1.33
2023-01-06T11:51:09.067Z,0.90
2023-01-06T11:56:13.405Z,0.90
2023-01-06T12:01:46.276Z,0.82
2023-01-06T12:06:49.194Z,1.30
2023-01-06T12:11:52.975Z,1.40
2023-01-06T12:16:56.891Z,0.88
2023-01-06T12:21:59.464Z,1.20
2023-01-06T12:27:02.776Z,0.95
2023-01-06T12:32:15.251Z,1.00
2023-01-06T12:37:37.753Z,1.20
2023-01-06T12:42:46.749Z,1.45
2023-01-06T12:47:54.155Z,1.20
2023-01-06T12:53:07.333Z,0.80
2023-01-06T12:58:25.115Z,1.10
2023-01-06T13:03:50.930Z,0.90
2023-01-06T13:09:33.382Z,1.00
2023-01-06T13:14:46.915Z,1.08
2023-01-06T13:19:52.483Z,0.88
2023-01-06T13:25:25.233Z,1.30
2023-01-06T13:30:50.974Z,0.90
2023-01-06T13:36:11.248Z,0.80
2023-01-06T13:41:16.914Z,1.10
2023-01-06T13:46:21.239Z,0.88
2023-01-06T13:51:27.258Z,0.77
2023-01-06T13:56:31.129Z,0.80
2023-01-06T14:01:34.101Z,0.65
2023-01-06T14:06:39.954Z,1.00
2023-01-06T14:11:41.813Z,0.70
2023-01-06T14:16:48.057Z,0.77
2023-01-06T14:21:52.060Z,0.90
2023-01-06T14:27:02.461Z,1.27
2023-01-06T14:32:04.108Z,0.90
2023-01-06T14:37:11.884Z,1.13
2023-01-06T14:42:20.829Z,1.00
2023-01-06T14:47:42.723Z,0.80
2023-01-06T14:52:55.902Z,1.10
2023-01-06T14:57:57.535Z,0.90
2023-01-06T15:03:20.140Z,0.93
2023-01-06T15:08:23.209Z,0.93
2023-01-06T15:13:31.580Z,1.10
2023-01-06T15:18:34.309Z,0.80
2023-01-06T15:23:38.211Z,1.00
2023-01-06T15:28:39.776Z,0.80
2023-01-06T15:33:41.793Z,0.93
2023-01-06T15:38:43.466Z,0.93
2023-01-06T15:43:45.951Z,1.10
2023-01-06T15:48:48.820Z,0.80
2023-01-06T15:53:56.369Z,1.08
2023-01-06T15:58:58.883Z,1.00
2023-01-06T16:04:01.884Z,0.80
2023-01-06T16:09:37.718Z,0.90
2023-01-06T16:14:51.831Z,1.10
2023-01-06T16:20:01.205Z,1.00
2023-01-06T16:25:26.897Z,1.20
2023-01-06T16:30:30.176Z,1.05
2023-01-06T16:35:33.749Z,0.95
2023-01-06T16:40:35.371Z,0.82
2023-01-06T16:45:47.287Z,1.40
2023-01-06T16:50:54.792Z,1.10
2023-01-06T16:55:57.778Z,1.10
2023-01-06T17:01:08.239Z,1.27
2023-01-06T17:06:17.640Z,1.50
2023-01-06T17:11:21.518Z,1.10
2023-01-06T17:16:27.332Z,1.35
2023-01-06T17:21:30.123Z,1.20
2023-01-06T17:26:32.234Z,1.23
2023-01-06T17:31:37.973Z,0.95
2023-01-06T17:36:41.826Z,1.02
2023-01-06T17:41:43.697Z,1.08
2023-01-06T17:46:46.463Z,1.23
2023-01-06T17:51:49.314Z,1.00
2023-01-06T17:56:52.288Z,1.30
2023-01-06T18:01:53.906Z,1.50
2023-01-06T18:06:55.572Z,1.50
2023-01-06T18:11:59.287Z,1.10
2023-01-06T18:17:15.373Z,1.50
2023-01-06T18:22:19.857Z,1.45
2023-01-06T18:27:25.320Z,1.63
2023-01-06T18:32:28.306Z,1.67
2023-01-06T18:37:32.550Z,1.38
2023-01-06T18:42:38.226Z,1.25
2023-01-06T18:47:41.607Z,1.45
2023-01-06T18:52:45.763Z,1.10
2023-01-06T18:57:55.224Z,1.25
2023-01-06T19:03:06.366Z,1.40
2023-01-06T19:08:15.701Z,1.30
2023-01-06T19:13:23.363Z,1.50
2023-01-06T19:18:28.417Z,1.27
2023-01-06T19:23:31.021Z,1.30
2023-01-06T19:28:34.162Z,1.10
2023-01-06T19:33:41.715Z,1.40
2023-01-06T19:38:44.178Z,1.40
2023-01-06T19:43:46.888Z,1.55
2023-01-06T19:48:49.242Z,1.58
2023-01-06T19:53:54.565Z,1.33
2023-01-06T19:59:30.282Z,1.40
2023-01-06T20:04:31.865Z,1.40
2023-01-06T20:09:34.110Z,1.30
2023-01-06T20:14:35.858Z,1.50
2023-01-06T20:19:37.460Z,1.27
2023-01-06T20:24:39.845Z,1.02
2023-01-06T20:29:41.508Z,1.50
2023-01-06T20:34:43.133Z,1.40
2023-01-06T20:39:44.954Z,1.13
2023-01-06T20:44:46.673Z,1.48
2023-01-06T20:49:48.519Z,1.50
2023-01-06T20:54:50.641Z,1.45
2023-01-06T20:59:52.234Z,1.65
2023-01-06T21:04:53.798Z,1.50
2023-01-06T21:09:55.387Z,1.65
2023-01-06T21:14:56.978Z,1.35
2023-01-06T21:19:58.544Z,1.52
2023-01-06T21:25:00.160Z,1.38
2023-01-06T21:30:02.133Z,1.90
2023-01-06T21:35:03.948Z,2.17
2023-01-06T21:40:09.044Z,2.72
2023-01-06T21:45:11.072Z,2.92
2023-01-06T21:50:12.931Z,2.30
2023-01-06T21:55:14.800Z,2.10
2023-01-06T22:00:16.984Z,2.00
2023-01-06T22:05:18.622Z,1.77
2023-01-06T22:10:22.374Z,2.00
2023-01-06T22:15:24.020Z,2.38
2023-01-06T22:20:27.232Z,2.30
2023-01-06T22:25:28.994Z,1.80
2023-01-06T22:30:30.853Z,2.00
2023-01-06T22:35:32.575Z,1.90
2023-01-06T22:40:34.213Z,1.95
2023-01-06T22:45:35.903Z,1.73
2023-01-06T22:50:38.174Z,1.80
2023-01-06T22:55:39.757Z,1.95
2023-01-06T23:00:41.367Z,1.90
2023-01-06T23:05:42.949Z,2.00
2023-01-06T23:10:44.561Z,2.10
2023-01-06T23:15:46.337Z,2.10
2023-01-06T23:20:56.711Z,2.03
2023-01-06T23:26:06.077Z,1.70
2023-01-06T23:31:13.191Z,2.13
2023-01-06T23:36:17.354Z,2.00
2023-01-06T23:41:21.793Z,1.90
2023-01-06T23:46:25.896Z,1.75
2023-01-06T23:51:32.169Z,1.75
2023-01-06T23:56:35.670Z,1.88
